sensor_id;sensor_type;location;lat;lon;timestamp;P1;durP1;ratioP1;P2;durP2;ratioP2
47958;SDS011;33718;50.910;-1.514;2022-10-18T00:01:36;42.10;;;9.80;;
47958;SDS011;33718;50.910;-1.514;2022-10-18T00:03:38;30.30;;;10.15;;
47958;SDS011;33718;50.910;-1.514;2022-10-18T00:05:39;21.38;;;9.25;;
47958;SDS011;33718;50.910;-1.514;2022-10-18T00:07:41;19.00;;;9.70;;
47958;SDS011;33718;50.910;-1.514;2022-10-18T00:09:42;19.35;;;9.32;;
47958;SDS011;33718;50.910;-1.514;2022-10-18T00:11:44;27.10;;;8.45;;
47958;SDS011;33718;50.910;-1.514;2022-10-18T00:13:46;24.50;;;7.47;;
47958;SDS011;33718;50.910;-1.514;2022-10-18T00:15:51;20.58;;;6.60;;
47958;SDS011;33718;50.910;-1.514;2022-10-18T00:17:53;17.00;;;6.97;;
47958;SDS011;33718;50.910;-1.514;2022-10-18T00:19:55;20.17;;;5.50;;
47958;SDS011;33718;50.910;-1.514;2022-10-18T00:21:56;24.35;;;4.70;;
47958;SDS011;33718;50.910;-1.514;2022-10-18T00:23:58;18.02;;;3.33;;
47958;SDS011;33718;50.910;-1.514;2022-10-18T00:26:04;21.67;;;2.95;;
47958;SDS011;33718;50.910;-1.514;2022-10-18T00:28:06;27.35;;;3.47;;
47958;SDS011;33718;50.910;-1.514;2022-10-18T00:30:07;21.17;;;5.20;;
47958;SDS011;33718;50.910;-1.514;2022-10-18T00:32:09;25.35;;;3.53;;
47958;SDS011;33718;50.910;-1.514;2022-10-18T00:34:13;12.27;;;3.15;;
47958;SDS011;33718;50.910;-1.514;2022-10-18T00:36:15;13.73;;;3.45;;
47958;SDS011;33718;50.910;-1.514;2022-10-18T00:38:16;13.52;;;3.67;;
47958;SDS011;33718;50.910;-1.514;2022-10-18T00:40:18;5.45;;;2.70;;
47958;SDS011;33718;50.910;-1.514;2022-10-18T00:42:28;5.65;;;3.17;;
47958;SDS011;33718;50.910;-1.514;2022-10-18T00:46:33;6.25;;;2.92;;
47958;SDS011;33718;50.910;-1.514;2022-10-18T00:48:35;11.50;;;3.72;;
47958;SDS011;33718;50.910;-1.514;2022-10-18T00:50:36;11.20;;;3.28;;
47958;SDS011;33718;50.910;-1.514;2022-10-18T00:52:40;12.50;;;4.20;;
47958;SDS011;33718;50.910;-1.514;2022-10-18T00:54:45;8.75;;;3.80;;
47958;SDS011;33718;50.910;-1.514;2022-10-18T00:56:49;7.90;;;3.78;;
47958;SDS011;33718;50.910;-1.514;2022-10-18T00:58:52;7.60;;;4.07;;
47958;SDS011;33718;50.910;-1.514;2022-10-18T01:00:56;11.95;;;4.30;;
47958;SDS011;33718;50.910;-1.514;2022-10-18T01:02:59;14.70;;;4.05;;
47958;SDS011;33718;50.910;-1.514;2022-10-18T01:05:01;10.10;;;3.92;;
47958;SDS011;33718;50.910;-1.514;2022-10-18T01:11:36;11.40;;;4.55;;
47958;SDS011;33718;50.910;-1.514;2022-10-18T01:48:10;29.50;;;7.90;;
47958;SDS011;33718;50.910;-1.514;2022-10-18T01:50:13;18.52;;;6.38;;
47958;SDS011;33718;50.910;-1.514;2022-10-18T01:52:15;24.88;;;7.38;;
47958;SDS011;33718;50.910;-1.514;2022-10-18T01:54:18;25.08;;;9.10;;
47958;SDS011;33718;50.910;-1.514;2022-10-18T01:58:35;21.42;;;7.25;;
47958;SDS011;33718;50.910;-1.514;2022-10-18T02:00:39;25.83;;;9.07;;
47958;SDS011;33718;50.910;-1.514;2022-10-18T02:04:58;26.83;;;7.00;;
47958;SDS011;33718;50.910;-1.514;2022-10-18T02:07:10;25.38;;;7.80;;
47958;SDS011;33718;50.910;-1.514;2022-10-18T02:09:18;24.05;;;8.00;;
47958;SDS011;33718;50.910;-1.514;2022-10-18T02:11:20;18.67;;;7.40;;
47958;SDS011;33718;50.910;-1.514;2022-10-18T02:13:22;23.02;;;7.68;;
47958;SDS011;33718;50.910;-1.514;2022-10-18T02:15:28;29.92;;;8.40;;
47958;SDS011;33718;50.910;-1.514;2022-10-18T02:17:31;18.20;;;7.43;;
47958;SDS011;33718;50.910;-1.514;2022-10-18T02:21:34;12.73;;;6.55;;
47958;SDS011;33718;50.910;-1.514;2022-10-18T02:23:37;18.88;;;6.68;;
47958;SDS011;33718;50.910;-1.514;2022-10-18T02:25:39;32.00;;;8.60;;
47958;SDS011;33718;50.910;-1.514;2022-10-18T02:27:40;19.45;;;7.03;;
47958;SDS011;33718;50.910;-1.514;2022-10-18T02:29:42;15.48;;;7.80;;
47958;SDS011;33718;50.910;-1.514;2022-10-18T02:31:47;23.67;;;6.82;;
47958;SDS011;33718;50.910;-1.514;2022-10-18T02:33:54;27.52;;;7.68;;
47958;SDS011;33718;50.910;-1.514;2022-10-18T02:35:58;27.50;;;7.43;;
47958;SDS011;33718;50.910;-1.514;2022-10-18T02:38:02;27.27;;;7.93;;
47958;SDS011;33718;50.910;-1.514;2022-10-18T02:40:05;24.58;;;7.55;;
47958;SDS011;33718;50.910;-1.514;2022-10-18T02:42:08;31.20;;;7.97;;
47958;SDS011;33718;50.910;-1.514;2022-10-18T02:44:10;36.10;;;8.50;;
47958;SDS011;33718;50.910;-1.514;2022-10-18T05:59:15;15.50;;;5.80;;
47958;SDS011;33718;50.910;-1.514;2022-10-18T06:01:17;22.47;;;7.93;;
47958;SDS011;33718;50.910;-1.514;2022-10-18T06:03:19;18.50;;;8.15;;
47958;SDS011;33718;50.910;-1.514;2022-10-18T06:05:20;21.30;;;7.50;;
47958;SDS011;33718;50.910;-1.514;2022-10-18T06:07:22;12.02;;;5.20;;
47958;SDS011;33718;50.910;-1.514;2022-10-18T06:09:23;20.52;;;5.90;;
47958;SDS011;33718;50.910;-1.514;2022-10-18T06:11:25;13.98;;;5.57;;
47958;SDS011;33718;50.910;-1.514;2022-10-18T06:13:26;13.43;;;6.18;;
47958;SDS011;33718;50.910;-1.514;2022-10-18T06:15:32;28.30;;;6.90;;
47958;SDS011;33718;50.910;-1.514;2022-10-18T06:17:34;17.63;;;6.72;;
47958;SDS011;33718;50.910;-1.514;2022-10-18T06:19:36;15.57;;;5.40;;
47958;SDS011;33718;50.910;-1.514;2022-10-18T06:21:37;17.23;;;5.88;;
47958;SDS011;33718;50.910;-1.514;2022-10-18T06:23:39;21.02;;;5.65;;
47958;SDS011;33718;50.910;-1.514;2022-10-18T06:25:40;12.82;;;4.95;;
47958;SDS011;33718;50.910;-1.514;2022-10-18T06:27:42;15.60;;;5.80;;
47958;SDS011;33718;50.910;-1.514;2022-10-18T06:29:44;15.48;;;6.22;;
47958;SDS011;33718;50.910;-1.514;2022-10-18T06:31:45;16.08;;;6.35;;
47958;SDS011;33718;50.910;-1.514;2022-10-18T06:33:47;21.35;;;6.95;;
47958;SDS011;33718;50.910;-1.514;2022-10-18T06:35:52;18.30;;;6.60;;
47958;SDS011;33718;50.910;-1.514;2022-10-18T06:37:54;23.67;;;7.53;;
47958;SDS011;33718;50.910;-1.514;2022-10-18T06:39:55;14.68;;;7.03;;
47958;SDS011;33718;50.910;-1.514;2022-10-18T06:41:57;9.82;;;5.97;;
47958;SDS011;33718;50.910;-1.514;2022-10-18T06:43:59;23.27;;;8.60;;
47958;SDS011;33718;50.910;-1.514;2022-10-18T06:46:07;15.52;;;6.25;;
47958;SDS011;33718;50.910;-1.514;2022-10-18T06:48:08;35.30;;;8.32;;
47958;SDS011;33718;50.910;-1.514;2022-10-18T06:50:17;28.98;;;8.00;;
47958;SDS011;33718;50.910;-1.514;2022-10-18T06:52:34;22.75;;;6.93;;
47958;SDS011;33718;50.910;-1.514;2022-10-18T06:54:37;26.88;;;7.22;;
47958;SDS011;33718;50.910;-1.514;2022-10-18T06:56:47;28.17;;;6.38;;
47958;SDS011;33718;50.910;-1.514;2022-10-18T06:58:53;28.70;;;6.57;;
47958;SDS011;33718;50.910;-1.514;2022-10-18T07:01:07;20.48;;;5.93;;
47958;SDS011;33718;50.910;-1.514;2022-10-18T07:03:13;30.90;;;6.43;;
47958;SDS011;33718;50.910;-1.514;2022-10-18T07:05:16;23.00;;;7.03;;
47958;SDS011;33718;50.910;-1.514;2022-10-18T07:07:18;21.35;;;6.45;;
47958;SDS011;33718;50.910;-1.514;2022-10-18T07:09:21;17.00;;;6.47;;
47958;SDS011;33718;50.910;-1.514;2022-10-18T07:11:23;22.30;;;5.78;;
47958;SDS011;33718;50.910;-1.514;2022-10-18T07:13:28;14.98;;;5.32;;
47958;SDS011;33718;50.910;-1.514;2022-10-18T07:15:34;14.70;;;5.47;;
47958;SDS011;33718;50.910;-1.514;2022-10-18T07:17:40;23.00;;;6.88;;
47958;SDS011;33718;50.910;-1.514;2022-10-18T07:19:42;20.25;;;6.55;;
47958;SDS011;33718;50.910;-1.514;2022-10-18T07:21:46;13.27;;;6.80;;
47958;SDS011;33718;50.910;-1.514;2022-10-18T07:23:50;14.93;;;5.95;;
47958;SDS011;33718;50.910;-1.514;2022-10-18T07:25:54;17.08;;;5.65;;
47958;SDS011;33718;50.910;-1.514;2022-10-18T07:27:55;16.73;;;5.57;;
47958;SDS011;33718;50.910;-1.514;2022-10-18T07:29:57;20.13;;;5.88;;
47958;SDS011;33718;50.910;-1.514;2022-10-18T07:31:59;16.92;;;5.40;;
47958;SDS011;33718;50.910;-1.514;2022-10-18T07:34:03;13.23;;;5.38;;
47958;SDS011;33718;50.910;-1.514;2022-10-18T07:36:07;15.93;;;6.68;;
47958;SDS011;33718;50.910;-1.514;2022-10-18T07:38:09;17.70;;;4.78;;
47958;SDS011;33718;50.910;-1.514;2022-10-18T07:40:12;15.00;;;4.53;;
47958;SDS011;33718;50.910;-1.514;2022-10-18T07:42:14;12.88;;;5.20;;
47958;SDS011;33718;50.910;-1.514;2022-10-18T07:44:18;13.18;;;6.05;;
47958;SDS011;33718;50.910;-1.514;2022-10-18T07:46:20;9.45;;;4.30;;
47958;SDS011;33718;50.910;-1.514;2022-10-18T07:48:24;11.85;;;5.40;;
47958;SDS011;33718;50.910;-1.514;2022-10-18T07:50:26;9.23;;;4.72;;
47958;SDS011;33718;50.910;-1.514;2022-10-18T07:52:28;13.38;;;5.47;;
47958;SDS011;33718;50.910;-1.514;2022-10-18T07:54:31;17.92;;;6.45;;
47958;SDS011;33718;50.910;-1.514;2022-10-18T07:56:32;13.35;;;4.43;;
47958;SDS011;33718;50.910;-1.514;2022-10-18T07:58:34;10.65;;;4.28;;
47958;SDS011;33718;50.910;-1.514;2022-10-18T08:00:36;12.75;;;4.65;;
47958;SDS011;33718;50.910;-1.514;2022-10-18T08:02:38;16.88;;;4.72;;
47958;SDS011;33718;50.910;-1.514;2022-10-18T08:04:40;12.68;;;4.90;;
47958;SDS011;33718;50.910;-1.514;2022-10-18T08:06:41;9.25;;;4.78;;
47958;SDS011;33718;50.910;-1.514;2022-10-18T08:08:44;15.23;;;4.32;;
47958;SDS011;33718;50.910;-1.514;2022-10-18T08:10:46;11.43;;;4.03;;
47958;SDS011;33718;50.910;-1.514;2022-10-18T08:12:47;16.88;;;5.18;;
47958;SDS011;33718;50.910;-1.514;2022-10-18T08:14:49;11.18;;;4.75;;
47958;SDS011;33718;50.910;-1.514;2022-10-18T08:16:51;15.95;;;5.22;;
47958;SDS011;33718;50.910;-1.514;2022-10-18T08:18:53;12.88;;;3.78;;
47958;SDS011;33718;50.910;-1.514;2022-10-18T08:20:55;9.00;;;4.38;;
47958;SDS011;33718;50.910;-1.514;2022-10-18T08:22:56;7.45;;;3.97;;
47958;SDS011;33718;50.910;-1.514;2022-10-18T08:27:02;6.78;;;4.38;;
47958;SDS011;33718;50.910;-1.514;2022-10-18T08:29:04;6.13;;;3.50;;
47958;SDS011;33718;50.910;-1.514;2022-10-18T08:31:25;5.05;;;4.07;;
47958;SDS011;33718;50.910;-1.514;2022-10-18T08:33:26;7.18;;;3.97;;
47958;SDS011;33718;50.910;-1.514;2022-10-18T08:35:28;5.68;;;4.18;;
47958;SDS011;33718;50.910;-1.514;2022-10-18T08:37:32;6.72;;;3.92;;
47958;SDS011;33718;50.910;-1.514;2022-10-18T08:39:35;7.53;;;3.72;;
47958;SDS011;33718;50.910;-1.514;2022-10-18T08:43:40;15.48;;;4.80;;
47958;SDS011;33718;50.910;-1.514;2022-10-18T08:45:42;7.15;;;4.93;;
47958;SDS011;33718;50.910;-1.514;2022-10-18T08:47:45;7.78;;;4.35;;
47958;SDS011;33718;50.910;-1.514;2022-10-18T08:49:53;5.85;;;4.38;;
47958;SDS011;33718;50.910;-1.514;2022-10-18T08:51:56;5.75;;;4.20;;
47958;SDS011;33718;50.910;-1.514;2022-10-18T08:54:01;6.75;;;4.70;;
47958;SDS011;33718;50.910;-1.514;2022-10-18T08:56:05;7.40;;;5.40;;
47958;SDS011;33718;50.910;-1.514;2022-10-18T08:58:14;5.50;;;4.35;;
47958;SDS011;33718;50.910;-1.514;2022-10-18T09:06:34;6.45;;;4.20;;
47958;SDS011;33718;50.910;-1.514;2022-10-18T09:11:17;8.57;;;4.57;;
47958;SDS011;33718;50.910;-1.514;2022-10-18T09:13:16;7.90;;;4.38;;
47958;SDS011;33718;50.910;-1.514;2022-10-18T09:23:48;7.65;;;3.35;;
47958;SDS011;33718;50.910;-1.514;2022-10-18T09:25:56;7.55;;;3.20;;
47958;SDS011;33718;50.910;-1.514;2022-10-18T09:28:23;7.22;;;3.08;;
47958;SDS011;33718;50.910;-1.514;2022-10-18T09:30:42;8.80;;;2.85;;
47958;SDS011;33718;50.910;-1.514;2022-10-18T09:37:13;5.88;;;2.72;;
47958;SDS011;33718;50.910;-1.514;2022-10-18T09:39:24;5.88;;;2.83;;
47958;SDS011;33718;50.910;-1.514;2022-10-18T09:46:09;6.20;;;2.78;;
47958;SDS011;33718;50.910;-1.514;2022-10-18T09:50:31;8.52;;;3.25;;
47958;SDS011;33718;50.910;-1.514;2022-10-18T09:52:38;6.20;;;3.67;;
47958;SDS011;33718;50.910;-1.514;2022-10-18T09:54:48;10.80;;;3.30;;
47958;SDS011;33718;50.910;-1.514;2022-10-18T09:57:01;7.93;;;3.20;;
47958;SDS011;33718;50.910;-1.514;2022-10-18T09:59:04;8.10;;;3.17;;
47958;SDS011;33718;50.910;-1.514;2022-10-18T10:01:06;8.27;;;4.10;;
47958;SDS011;33718;50.910;-1.514;2022-10-18T10:03:10;13.98;;;3.92;;
47958;SDS011;33718;50.910;-1.514;2022-10-18T10:05:16;9.45;;;2.90;;
47958;SDS011;33718;50.910;-1.514;2022-10-18T10:07:32;8.57;;;3.03;;
47958;SDS011;33718;50.910;-1.514;2022-10-18T10:09:46;6.30;;;3.30;;
47958;SDS011;33718;50.910;-1.514;2022-10-18T10:11:49;8.95;;;3.17;;
47958;SDS011;33718;50.910;-1.514;2022-10-18T10:13:57;11.82;;;3.95;;
47958;SDS011;33718;50.910;-1.514;2022-10-18T10:16:01;9.00;;;2.88;;
47958;SDS011;33718;50.910;-1.514;2022-10-18T10:18:16;13.52;;;3.47;;
47958;SDS011;33718;50.910;-1.514;2022-10-18T10:20:21;8.98;;;3.33;;
47958;SDS011;33718;50.910;-1.514;2022-10-18T10:22:32;13.40;;;3.30;;
47958;SDS011;33718;50.910;-1.514;2022-10-18T10:24:42;12.52;;;4.00;;
47958;SDS011;33718;50.910;-1.514;2022-10-18T10:26:44;7.07;;;3.42;;
47958;SDS011;33718;50.910;-1.514;2022-10-18T10:28:47;13.27;;;3.78;;
47958;SDS011;33718;50.910;-1.514;2022-10-18T10:30:51;9.07;;;3.70;;
47958;SDS011;33718;50.910;-1.514;2022-10-18T10:32:53;12.70;;;2.92;;
47958;SDS011;33718;50.910;-1.514;2022-10-18T10:34:55;10.60;;;3.28;;
47958;SDS011;33718;50.910;-1.514;2022-10-18T10:36:59;9.38;;;4.00;;
47958;SDS011;33718;50.910;-1.514;2022-10-18T10:41:15;11.10;;;3.67;;
47958;SDS011;33718;50.910;-1.514;2022-10-18T10:43:23;8.68;;;3.47;;
47958;SDS011;33718;50.910;-1.514;2022-10-18T10:48:00;7.88;;;2.55;;
47958;SDS011;33718;50.910;-1.514;2022-10-18T10:50:10;14.10;;;3.03;;
47958;SDS011;33718;50.910;-1.514;2022-10-18T10:52:17;9.32;;;2.35;;
47958;SDS011;33718;50.910;-1.514;2022-10-18T10:54:29;7.50;;;2.10;;
47958;SDS011;33718;50.910;-1.514;2022-10-18T10:56:36;6.43;;;1.80;;
47958;SDS011;33718;50.910;-1.514;2022-10-18T10:58:39;7.28;;;1.45;;
47958;SDS011;33718;50.910;-1.514;2022-10-18T11:00:42;9.80;;;1.42;;
47958;SDS011;33718;50.910;-1.514;2022-10-18T11:02:44;7.65;;;1.50;;
47958;SDS011;33718;50.910;-1.514;2022-10-18T11:05:15;13.55;;;1.88;;
47958;SDS011;33718;50.910;-1.514;2022-10-18T11:07:40;6.55;;;1.38;;
47958;SDS011;33718;50.910;-1.514;2022-10-18T11:11:55;8.48;;;1.80;;
47958;SDS011;33718;50.910;-1.514;2022-10-18T11:16:23;11.35;;;1.35;;
47958;SDS011;33718;50.910;-1.514;2022-10-18T11:18:31;6.90;;;1.27;;
47958;SDS011;33718;50.910;-1.514;2022-10-18T11:20:34;10.05;;;1.88;;
47958;SDS011;33718;50.910;-1.514;2022-10-18T11:24:54;9.98;;;1.20;;
47958;SDS011;33718;50.910;-1.514;2022-10-18T11:27:40;6.07;;;0.90;;
47958;SDS011;33718;50.910;-1.514;2022-10-18T11:31:44;7.72;;;1.50;;
47958;SDS011;33718;50.910;-1.514;2022-10-18T11:54:14;6.63;;;1.20;;
47958;SDS011;33718;50.910;-1.514;2022-10-18T11:56:26;7.63;;;1.27;;
47958;SDS011;33718;50.910;-1.514;2022-10-18T12:01:05;11.65;;;1.27;;
47958;SDS011;33718;50.910;-1.514;2022-10-18T12:03:17;7.85;;;0.95;;
47958;SDS011;33718;50.910;-1.514;2022-10-18T12:05:23;8.45;;;1.05;;
47958;SDS011;33718;50.910;-1.514;2022-10-18T12:07:26;6.90;;;1.17;;
47958;SDS011;33718;50.910;-1.514;2022-10-18T12:09:37;8.32;;;1.08;;
47958;SDS011;33718;50.910;-1.514;2022-10-18T12:11:43;6.65;;;0.90;;
47958;SDS011;33718;50.910;-1.514;2022-10-18T12:15:50;12.38;;;1.58;;
47958;SDS011;33718;50.910;-1.514;2022-10-18T12:17:52;7.97;;;1.00;;
47958;SDS011;33718;50.910;-1.514;2022-10-18T12:19:55;10.18;;;1.13;;
47958;SDS011;33718;50.910;-1.514;2022-10-18T12:22:01;6.18;;;1.35;;
47958;SDS011;33718;50.910;-1.514;2022-10-18T12:24:07;8.32;;;1.95;;
47958;SDS011;33718;50.910;-1.514;2022-10-18T12:26:11;6.80;;;0.95;;
47958;SDS011;33718;50.910;-1.514;2022-10-18T12:32:53;12.43;;;1.30;;
47958;SDS011;33718;50.910;-1.514;2022-10-18T12:35:20;7.95;;;1.45;;
47958;SDS011;33718;50.910;-1.514;2022-10-18T12:40:01;6.78;;;1.88;;
47958;SDS011;33718;50.910;-1.514;2022-10-18T12:42:21;7.18;;;0.90;;
47958;SDS011;33718;50.910;-1.514;2022-10-18T12:44:33;5.10;;;1.10;;
47958;SDS011;33718;50.910;-1.514;2022-10-18T12:46:48;7.60;;;1.30;;
47958;SDS011;33718;50.910;-1.514;2022-10-18T12:49:03;14.13;;;1.33;;
47958;SDS011;33718;50.910;-1.514;2022-10-18T12:51:12;12.68;;;1.35;;
47958;SDS011;33718;50.910;-1.514;2022-10-18T12:53:18;7.78;;;1.52;;
47958;SDS011;33718;50.910;-1.514;2022-10-18T12:57:25;13.60;;;1.25;;
47958;SDS011;33718;50.910;-1.514;2022-10-18T12:59:47;5.88;;;1.48;;
47958;SDS011;33718;50.910;-1.514;2022-10-18T13:03:53;4.40;;;1.20;;
47958;SDS011;33718;50.910;-1.514;2022-10-18T13:05:56;6.25;;;1.10;;
47958;SDS011;33718;50.910;-1.514;2022-10-18T13:10:31;6.82;;;1.90;;
47958;SDS011;33718;50.910;-1.514;2022-10-18T13:12:58;7.68;;;1.35;;
47958;SDS011;33718;50.910;-1.514;2022-10-18T13:15:34;7.97;;;2.22;;
47958;SDS011;33718;50.910;-1.514;2022-10-18T13:24:38;6.53;;;1.73;;
47958;SDS011;33718;50.910;-1.514;2022-10-18T13:28:57;8.43;;;1.88;;
47958;SDS011;33718;50.910;-1.514;2022-10-18T13:31:14;8.10;;;1.60;;
47958;SDS011;33718;50.910;-1.514;2022-10-18T13:35:48;9.70;;;1.67;;
47958;SDS011;33718;50.910;-1.514;2022-10-18T13:37:57;8.87;;;1.07;;
47958;SDS011;33718;50.910;-1.514;2022-10-18T13:42:28;11.90;;;1.73;;
47958;SDS011;33718;50.910;-1.514;2022-10-18T13:44:34;8.02;;;1.33;;
47958;SDS011;33718;50.910;-1.514;2022-10-18T13:48:44;7.72;;;1.20;;
47958;SDS011;33718;50.910;-1.514;2022-10-18T13:50:48;8.43;;;1.20;;
47958;SDS011;33718;50.910;-1.514;2022-10-18T13:53:00;8.45;;;1.52;;
47958;SDS011;33718;50.910;-1.514;2022-10-18T13:57:44;11.90;;;2.65;;
47958;SDS011;33718;50.910;-1.514;2022-10-18T14:02:52;6.85;;;1.60;;
47958;SDS011;33718;50.910;-1.514;2022-10-18T14:05:12;5.75;;;1.80;;
47958;SDS011;33718;50.910;-1.514;2022-10-18T14:07:25;12.75;;;2.65;;
47958;SDS011;33718;50.910;-1.514;2022-10-18T14:09:28;9.27;;;2.08;;
47958;SDS011;33718;50.910;-1.514;2022-10-18T14:11:48;9.00;;;2.40;;
47958;SDS011;33718;50.910;-1.514;2022-10-18T14:13:51;11.15;;;1.75;;
47958;SDS011;33718;50.910;-1.514;2022-10-18T14:15:57;8.40;;;1.98;;
47958;SDS011;33718;50.910;-1.514;2022-10-18T14:18:20;10.93;;;2.38;;
47958;SDS011;33718;50.910;-1.514;2022-10-18T14:20:25;9.05;;;1.58;;
47958;SDS011;33718;50.910;-1.514;2022-10-18T14:22:33;7.03;;;1.58;;
47958;SDS011;33718;50.910;-1.514;2022-10-18T14:24:37;9.75;;;2.65;;
47958;SDS011;33718;50.910;-1.514;2022-10-18T14:26:39;6.13;;;1.70;;
47958;SDS011;33718;50.910;-1.514;2022-10-18T14:28:40;10.68;;;2.38;;
47958;SDS011;33718;50.910;-1.514;2022-10-18T14:33:21;10.48;;;1.88;;
47958;SDS011;33718;50.910;-1.514;2022-10-18T14:35:25;11.90;;;2.40;;
47958;SDS011;33718;50.910;-1.514;2022-10-18T14:37:34;10.13;;;1.90;;
47958;SDS011;33718;50.910;-1.514;2022-10-18T14:39:36;8.35;;;2.05;;
47958;SDS011;33718;50.910;-1.514;2022-10-18T14:41:46;17.40;;;2.80;;
47958;SDS011;33718;50.910;-1.514;2022-10-18T14:43:48;12.50;;;1.50;;
47958;SDS011;33718;50.910;-1.514;2022-10-18T14:45:50;9.38;;;2.00;;
47958;SDS011;33718;50.910;-1.514;2022-10-18T14:47:51;16.67;;;2.58;;
47958;SDS011;33718;50.910;-1.514;2022-10-18T14:49:53;9.95;;;3.20;;
47958;SDS011;33718;50.910;-1.514;2022-10-18T14:51:55;14.70;;;3.00;;
47958;SDS011;33718;50.910;-1.514;2022-10-18T14:53:58;15.38;;;3.35;;
47958;SDS011;33718;50.910;-1.514;2022-10-18T14:56:01;8.93;;;2.25;;
47958;SDS011;33718;50.910;-1.514;2022-10-18T14:58:12;11.10;;;2.63;;
47958;SDS011;33718;50.910;-1.514;2022-10-18T15:00:25;16.00;;;2.83;;
47958;SDS011;33718;50.910;-1.514;2022-10-18T15:02:29;13.38;;;2.70;;
47958;SDS011;33718;50.910;-1.514;2022-10-18T15:04:32;11.27;;;1.92;;
47958;SDS011;33718;50.910;-1.514;2022-10-18T15:06:34;14.57;;;2.08;;
47958;SDS011;33718;50.910;-1.514;2022-10-18T15:08:37;13.35;;;2.35;;
47958;SDS011;33718;50.910;-1.514;2022-10-18T15:10:40;16.33;;;2.35;;
47958;SDS011;33718;50.910;-1.514;2022-10-18T15:12:42;9.95;;;2.35;;
47958;SDS011;33718;50.910;-1.514;2022-10-18T15:15:04;19.02;;;2.67;;
47958;SDS011;33718;50.910;-1.514;2022-10-18T15:17:18;10.48;;;2.30;;
47958;SDS011;33718;50.910;-1.514;2022-10-18T15:19:35;12.63;;;2.90;;
47958;SDS011;33718;50.910;-1.514;2022-10-18T15:21:52;16.15;;;3.05;;
47958;SDS011;33718;50.910;-1.514;2022-10-18T15:24:17;16.55;;;3.03;;
47958;SDS011;33718;50.910;-1.514;2022-10-18T15:26:20;13.55;;;2.25;;
47958;SDS011;33718;50.910;-1.514;2022-10-18T15:28:25;19.00;;;3.78;;
47958;SDS011;33718;50.910;-1.514;2022-10-18T15:32:36;12.27;;;2.17;;
47958;SDS011;33718;50.910;-1.514;2022-10-18T15:34:38;14.32;;;3.00;;
47958;SDS011;33718;50.910;-1.514;2022-10-18T15:36:39;13.07;;;2.78;;
47958;SDS011;33718;50.910;-1.514;2022-10-18T15:38:41;18.10;;;2.95;;
47958;SDS011;33718;50.910;-1.514;2022-10-18T15:40:49;18.17;;;3.35;;
47958;SDS011;33718;50.910;-1.514;2022-10-18T15:42:52;12.07;;;2.35;;
47958;SDS011;33718;50.910;-1.514;2022-10-18T15:44:53;18.98;;;3.22;;
47958;SDS011;33718;50.910;-1.514;2022-10-18T15:47:07;18.10;;;2.83;;
47958;SDS011;33718;50.910;-1.514;2022-10-18T15:55:44;8.68;;;2.20;;
47958;SDS011;33718;50.910;-1.514;2022-10-18T15:57:46;14.88;;;3.88;;
47958;SDS011;33718;50.910;-1.514;2022-10-18T15:59:50;13.07;;;3.17;;
47958;SDS011;33718;50.910;-1.514;2022-10-18T16:01:52;13.63;;;3.38;;
47958;SDS011;33718;50.910;-1.514;2022-10-18T16:03:54;17.35;;;3.78;;
47958;SDS011;33718;50.910;-1.514;2022-10-18T16:06:02;14.35;;;3.20;;
47958;SDS011;33718;50.910;-1.514;2022-10-18T16:08:05;24.38;;;3.78;;
47958;SDS011;33718;50.910;-1.514;2022-10-18T16:10:11;15.68;;;3.10;;
47958;SDS011;33718;50.910;-1.514;2022-10-18T16:12:13;18.65;;;3.47;;
47958;SDS011;33718;50.910;-1.514;2022-10-18T16:14:14;15.80;;;4.47;;
47958;SDS011;33718;50.910;-1.514;2022-10-18T16:16:20;18.48;;;4.28;;
47958;SDS011;33718;50.910;-1.514;2022-10-18T16:18:23;16.35;;;4.68;;
47958;SDS011;33718;50.910;-1.514;2022-10-18T16:20:26;17.80;;;3.95;;
47958;SDS011;33718;50.910;-1.514;2022-10-18T16:22:28;15.20;;;4.10;;
47958;SDS011;33718;50.910;-1.514;2022-10-18T16:24:36;14.02;;;3.25;;
47958;SDS011;33718;50.910;-1.514;2022-10-18T16:26:38;11.75;;;2.83;;
47958;SDS011;33718;50.910;-1.514;2022-10-18T16:28:41;13.80;;;3.22;;
47958;SDS011;33718;50.910;-1.514;2022-10-18T16:30:45;15.05;;;2.83;;
47958;SDS011;33718;50.910;-1.514;2022-10-18T16:32:48;9.98;;;2.97;;
47958;SDS011;33718;50.910;-1.514;2022-10-18T16:34:51;16.42;;;3.78;;
47958;SDS011;33718;50.910;-1.514;2022-10-18T16:36:53;12.98;;;3.08;;
47958;SDS011;33718;50.910;-1.514;2022-10-18T16:38:56;14.65;;;3.55;;
47958;SDS011;33718;50.910;-1.514;2022-10-18T16:41:02;13.57;;;3.58;;
47958;SDS011;33718;50.910;-1.514;2022-10-18T16:43:04;11.68;;;4.00;;
47958;SDS011;33718;50.910;-1.514;2022-10-18T16:45:06;19.02;;;4.82;;
47958;SDS011;33718;50.910;-1.514;2022-10-18T16:47:10;15.43;;;3.80;;
47958;SDS011;33718;50.910;-1.514;2022-10-18T16:49:31;17.25;;;4.22;;
47958;SDS011;33718;50.910;-1.514;2022-10-18T16:51:34;14.68;;;4.07;;
47958;SDS011;33718;50.910;-1.514;2022-10-18T16:53:37;13.45;;;4.05;;
47958;SDS011;33718;50.910;-1.514;2022-10-18T16:55:41;20.67;;;4.78;;
47958;SDS011;33718;50.910;-1.514;2022-10-18T16:57:45;18.85;;;4.57;;
47958;SDS011;33718;50.910;-1.514;2022-10-18T16:59:49;20.80;;;4.72;;
47958;SDS011;33718;50.910;-1.514;2022-10-18T17:01:51;19.30;;;4.53;;
47958;SDS011;33718;50.910;-1.514;2022-10-18T17:03:52;14.90;;;4.22;;
47958;SDS011;33718;50.910;-1.514;2022-10-18T17:05:55;15.35;;;4.13;;
47958;SDS011;33718;50.910;-1.514;2022-10-18T17:07:57;15.13;;;4.60;;
47958;SDS011;33718;50.910;-1.514;2022-10-18T17:09:59;19.98;;;4.65;;
47958;SDS011;33718;50.910;-1.514;2022-10-18T17:12:05;15.32;;;3.72;;
47958;SDS011;33718;50.910;-1.514;2022-10-18T17:14:06;19.50;;;3.72;;
47958;SDS011;33718;50.910;-1.514;2022-10-18T17:16:18;20.90;;;4.20;;
47958;SDS011;33718;50.910;-1.514;2022-10-18T17:18:22;15.35;;;3.53;;
47958;SDS011;33718;50.910;-1.514;2022-10-18T17:20:26;14.57;;;3.15;;
47958;SDS011;33718;50.910;-1.514;2022-10-18T17:22:28;14.77;;;3.17;;
47958;SDS011;33718;50.910;-1.514;2022-10-18T17:24:30;14.00;;;3.97;;
47958;SDS011;33718;50.910;-1.514;2022-10-18T17:26:32;17.63;;;3.53;;
47958;SDS011;33718;50.910;-1.514;2022-10-18T17:28:33;12.68;;;3.33;;
47958;SDS011;33718;50.910;-1.514;2022-10-18T17:30:35;15.82;;;3.55;;
47958;SDS011;33718;50.910;-1.514;2022-10-18T17:32:39;9.32;;;3.03;;
47958;SDS011;33718;50.910;-1.514;2022-10-18T17:34:40;18.77;;;2.83;;
47958;SDS011;33718;50.910;-1.514;2022-10-18T17:36:47;11.40;;;2.75;;
47958;SDS011;33718;50.910;-1.514;2022-10-18T17:38:49;10.02;;;2.45;;
47958;SDS011;33718;50.910;-1.514;2022-10-18T17:40:51;11.90;;;2.97;;
47958;SDS011;33718;50.910;-1.514;2022-10-18T17:42:53;9.05;;;2.80;;
47958;SDS011;33718;50.910;-1.514;2022-10-18T17:44:55;12.52;;;3.13;;
47958;SDS011;33718;50.910;-1.514;2022-10-18T17:46:58;6.68;;;1.92;;
47958;SDS011;33718;50.910;-1.514;2022-10-18T17:48:59;15.63;;;2.63;;
47958;SDS011;33718;50.910;-1.514;2022-10-18T17:51:05;17.33;;;3.22;;
47958;SDS011;33718;50.910;-1.514;2022-10-18T17:53:07;13.00;;;3.38;;
47958;SDS011;33718;50.910;-1.514;2022-10-18T17:55:08;16.55;;;3.05;;
47958;SDS011;33718;50.910;-1.514;2022-10-18T17:57:10;11.73;;;3.42;;
47958;SDS011;33718;50.910;-1.514;2022-10-18T17:59:12;17.45;;;3.17;;
47958;SDS011;33718;50.910;-1.514;2022-10-18T18:01:15;7.38;;;2.35;;
47958;SDS011;33718;50.910;-1.514;2022-10-18T18:03:19;9.02;;;2.58;;
47958;SDS011;33718;50.910;-1.514;2022-10-18T18:05:20;12.40;;;2.92;;
47958;SDS011;33718;50.910;-1.514;2022-10-18T18:07:22;15.35;;;3.50;;
47958;SDS011;33718;50.910;-1.514;2022-10-18T18:09:24;15.20;;;2.55;;
47958;SDS011;33718;50.910;-1.514;2022-10-18T18:11:26;12.13;;;2.97;;
47958;SDS011;33718;50.910;-1.514;2022-10-18T18:13:28;10.15;;;2.92;;
47958;SDS011;33718;50.910;-1.514;2022-10-18T18:15:30;11.50;;;2.63;;